Time;durP1;ratioP1;P1;durP2;ratioP2;P2;SDS_P1;SDS_P2;PMS_P1;PMS_P2;Temp;Humidity;BMP_temperature;BMP_pressure;BME280_temperature;BME280_humidity;BME280_pressure;Samples;Min_cycle;Max_cycle;Signal;HPM_P1;HPM_P2
2021/12/29 00:02:08;;;;;;;23.15;6.95;;;;;;;;;;4782057;29;20126;-70
2021/12/29 00:04:47;;;;;;;19.10;7.38;;;;;;;;;;4775842;29;20058;-69
2021/12/29 00:07:15;;;;;;;12.75;4.85;;;;;;;;;;4803622;29;20046;-69
2021/12/29 00:09:42;;;;;;;13.88;5.18;;;;;;;;;;4799412;29;20062;-70
2021/12/29 00:12:11;;;;;;;22.52;6.05;;;;;;;;;;4796960;29;20049;-70
2021/12/29 00:14:38;;;;;;;11.20;4.38;;;;;;;;;;4795288;29;20058;-70
2021/12/29 00:17:05;;;;;;;16.00;3.95;;;;;;;;;;4799537;29;20082;-70
2021/12/29 00:19:33;;;;;;;29.05;8.98;;;;;;;;;;4794459;29;20053;-70
2021/12/29 00:22:00;;;;;;;11.10;6.65;;;;;;;;;;4798505;29;20177;-70
2021/12/29 00:24:27;;;;;;;19.77;9.10;;;;;;;;;;4794121;29;20579;-70
2021/12/29 00:26:55;;;;;;;28.48;11.35;;;;;;;;;;4799852;29;20302;-69
2021/12/29 00:29:22;;;;;;;38.47;12.10;;;;;;;;;;4799572;29;20051;-69
2021/12/29 00:32:10;;;;;;;22.42;9.32;;;;;;;;;;4796338;29;20392;-69
2021/12/29 00:34:57;;;;;;;22.05;8.85;;;;;;;;;;4841822;24;20451;-86
2021/12/29 00:37:44;;;;;;;36.95;10.68;;;;;;;;;;4822072;29;20425;-86
2021/12/29 00:40:38;;;;;;;22.25;9.40;;;;;;;;;;4826133;29;20126;-86
2021/12/29 00:43:24;;;;;;;17.65;7.53;;;;;;;;;;4827432;29;20417;-86
2021/12/29 00:46:20;;;;;;;7.70;4.30;;;;;;;;;;4818019;29;20046;-86
2021/12/29 00:48:48;;;;;;;4.75;2.80;;;;;;;;;;4819277;29;20056;-86
2021/12/29 00:51:16;;;;;;;7.35;3.95;;;;;;;;;;4826661;29;20094;-86
2021/12/29 00:53:43;;;;;;;13.35;4.32;;;;;;;;;;4828625;29;20054;-86
2021/12/29 00:56:12;;;;;;;11.10;4.13;;;;;;;;;;4821921;29;20133;-86
2021/12/29 00:58:39;;;;;;;8.27;3.28;;;;;;;;;;4820451;29;20049;-86
2021/12/29 01:01:06;;;;;;;3.95;2.30;;;;;;;;;;4833482;29;20810;-85
2021/12/29 01:03:35;;;;;;;5.82;3.17;;;;;;;;;;4821246;29;20054;-85
2021/12/29 01:06:02;;;;;;;9.82;4.03;;;;;;;;;;4806316;29;20552;-86
2021/12/29 01:08:29;;;;;;;7.60;2.65;;;;;;;;;;4811546;29;20042;-85
2021/12/29 01:10:57;;;;;;;8.40;3.63;;;;;;;;;;4819640;29;20046;-86
2021/12/29 01:13:32;;;;;;;11.13;4.20;;;;;;;;;;4818542;29;20049;-86
2021/12/29 01:18:35;;;;;;;10.13;3.47;;;;;;;;;;4834905;29;20041;-85
2021/12/29 01:21:03;;;;;;;11.05;4.13;;;;;;;;;;4824547;29;20286;-86
2021/12/29 01:23:31;;;;;;;8.30;4.07;;;;;;;;;;4820848;29;20133;-86
2021/12/29 01:25:58;;;;;;;5.63;2.60;;;;;;;;;;4822182;29;20696;-86
2021/12/29 01:28:27;;;;;;;6.70;3.92;;;;;;;;;;4805968;29;20054;-86
2021/12/29 01:30:55;;;;;;;11.43;4.70;;;;;;;;;;4822165;29;20060;-86
2021/12/29 01:33:22;;;;;;;11.07;4.70;;;;;;;;;;4821688;29;20073;-86
2021/12/29 01:35:50;;;;;;;10.88;4.38;;;;;;;;;;4821550;29;20551;-86
2021/12/29 01:38:17;;;;;;;13.40;4.63;;;;;;;;;;4830043;29;20670;-86
2021/12/29 01:40:48;;;;;;;10.13;3.83;;;;;;;;;;4824174;29;20049;-86
2021/12/29 01:43:16;;;;;;;6.25;3.10;;;;;;;;;;4828743;29;20038;-87
2021/12/29 01:45:43;;;;;;;7.32;3.75;;;;;;;;;;4826174;29;20524;-86
2021/12/29 01:48:13;;;;;;;7.22;3.20;;;;;;;;;;4831139;29;20046;-86
2021/12/29 01:50:40;;;;;;;7.28;2.67;;;;;;;;;;4809642;29;20429;-86
2021/12/29 01:53:08;;;;;;;5.43;2.10;;;;;;;;;;4830501;29;20763;-87
2021/12/29 01:55:36;;;;;;;2.28;1.52;;;;;;;;;;4811349;29;20053;-86
2021/12/29 01:58:04;;;;;;;5.22;1.60;;;;;;;;;;4828477;29;20172;-86
2021/12/29 02:00:32;;;;;;;3.95;1.20;;;;;;;;;;4830595;29;20082;-87
2021/12/29 02:03:00;;;;;;;2.88;1.15;;;;;;;;;;4820488;29;20050;-87
2021/12/29 02:05:28;;;;;;;4.20;1.25;;;;;;;;;;4829853;29;20049;-87
2021/12/29 02:07:55;;;;;;;2.95;0.80;;;;;;;;;;4824963;29;20058;-86
2021/12/29 02:10:24;;;;;;;3.67;0.93;;;;;;;;;;4829897;29;20046;-87
2021/12/29 02:12:51;;;;;;;2.88;1.15;;;;;;;;;;4823152;29;20122;-87
2021/12/29 02:15:19;;;;;;;3.90;1.13;;;;;;;;;;4824103;29;20065;-87
2021/12/29 02:17:49;;;;;;;3.42;1.33;;;;;;;;;;4821355;29;20677;-87
2021/12/29 02:20:21;;;;;;;3.85;1.50;;;;;;;;;;4824641;29;20517;-87
2021/12/29 02:23:03;;;;;;;5.68;1.60;;;;;;;;;;4828564;29;20596;-87
2021/12/29 02:25:46;;;;;;;1.38;1.10;;;;;;;;;;4824022;29;20061;-87
2021/12/29 02:28:14;;;;;;;6.47;2.03;;;;;;;;;;4814431;29;20050;-86
2021/12/29 02:30:41;;;;;;;2.90;1.55;;;;;;;;;;4821329;29;20303;-86
2021/12/29 02:33:13;;;;;;;8.27;1.85;;;;;;;;;;4805080;29;20054;-86
2021/12/29 02:35:41;;;;;;;5.85;1.40;;;;;;;;;;4823730;29;20413;-86
2021/12/29 02:38:17;;;;;;;7.60;2.45;;;;;;;;;;4827021;29;20048;-86
2021/12/29 02:40:44;;;;;;;4.75;2.42;;;;;;;;;;4822179;29;20425;-86
2021/12/29 02:43:18;;;;;;;5.35;2.70;;;;;;;;;;4809353;29;20051;-86
2021/12/29 02:45:49;;;;;;;5.00;3.00;;;;;;;;;;4841737;29;20044;-85
2021/12/29 02:48:18;;;;;;;6.18;3.15;;;;;;;;;;4837372;29;20034;-86
2021/12/29 02:50:45;;;;;;;6.57;3.30;;;;;;;;;;4848847;29;20048;-85
2021/12/29 02:53:14;;;;;;;5.03;3.05;;;;;;;;;;4845324;29;20117;-86
2021/12/29 02:55:41;;;;;;;5.18;2.00;;;;;;;;;;4830014;29;20061;-86
2021/12/29 02:58:08;;;;;;;5.55;3.03;;;;;;;;;;4849581;29;20118;-86
2021/12/29 03:00:36;;;;;;;3.72;2.30;;;;;;;;;;4854853;29;20046;-86
2021/12/29 03:03:13;;;;;;;6.05;1.95;;;;;;;;;;4855355;29;20026;-85
2021/12/29 03:05:41;;;;;;;9.85;2.00;;;;;;;;;;4848532;29;20037;-86
2021/12/29 03:08:08;;;;;;;9.38;3.42;;;;;;;;;;4831416;29;20042;-86
2021/12/29 03:10:35;;;;;;;9.30;4.55;;;;;;;;;;4849183;29;20050;-85
2021/12/29 03:13:03;;;;;;;12.32;5.45;;;;;;;;;;4851678;29;20093;-86
2021/12/29 03:15:30;;;;;;;12.80;4.10;;;;;;;;;;4853819;29;20050;-86
2021/12/29 03:17:57;;;;;;;5.10;3.30;;;;;;;;;;4849068;29;20045;-86
2021/12/29 03:20:24;;;;;;;8.77;4.55;;;;;;;;;;4845731;29;20038;-86
2021/12/29 03:22:53;;;;;;;6.10;4.18;;;;;;;;;;4822881;29;20489;-86
2021/12/29 03:25:21;;;;;;;8.00;4.40;;;;;;;;;;4843669;29;20050;-86
2021/12/29 03:27:49;;;;;;;5.22;2.90;;;;;;;;;;4815220;29;20046;-86
2021/12/29 03:30:16;;;;;;;10.98;3.38;;;;;;;;;;4830621;29;20043;-86
2021/12/29 03:32:51;;;;;;;6.88;4.20;;;;;;;;;;4826218;29;20049;-86
2021/12/29 03:35:20;;;;;;;12.40;5.88;;;;;;;;;;4827577;29;20042;-86
2021/12/29 03:37:47;;;;;;;16.83;6.97;;;;;;;;;;4823992;29;20046;-86
2021/12/29 03:40:14;;;;;;;18.52;6.78;;;;;;;;;;4823139;29;20046;-86
2021/12/29 03:42:42;;;;;;;12.88;6.15;;;;;;;;;;4822788;29;20042;-86
2021/12/29 03:45:09;;;;;;;11.27;5.82;;;;;;;;;;4822832;29;20058;-86
2021/12/29 03:47:37;;;;;;;11.93;5.68;;;;;;;;;;4823815;29;20049;-86
2021/12/29 03:50:04;;;;;;;21.95;9.32;;;;;;;;;;4824002;29;20046;-86
2021/12/29 03:52:32;;;;;;;11.00;9.35;;;;;;;;;;4822384;29;20051;-86
2021/12/29 03:54:59;;;;;;;14.38;9.00;;;;;;;;;;4824068;29;20051;-86
2021/12/29 03:57:26;;;;;;;28.55;17.65;;;;;;;;;;4807551;29;20060;-86
2021/12/29 03:59:53;;;;;;;21.65;14.30;;;;;;;;;;4803927;29;20055;-86
2021/12/29 04:02:21;;;;;;;17.63;12.48;;;;;;;;;;4808758;29;20058;-86
2021/12/29 04:04:48;;;;;;;21.20;10.48;;;;;;;;;;4824197;29;20302;-86
2021/12/29 04:07:16;;;;;;;25.10;13.55;;;;;;;;;;4823594;29;20145;-86
2021/12/29 04:09:43;;;;;;;13.15;9.13;;;;;;;;;;4822043;29;20043;-85
2021/12/29 04:12:10;;;;;;;26.52;12.30;;;;;;;;;;4822807;29;20054;-88
2021/12/29 04:14:38;;;;;;;23.65;10.55;;;;;;;;;;4823226;29;20043;-85
2021/12/29 04:17:09;;;;;;;12.30;7.70;;;;;;;;;;4824158;29;20673;-86
2021/12/29 04:20:54;;;;;;;10.60;6.68;;;;;;;;;;4824108;29;20066;-86
2021/12/29 04:22:31;;;;;;;23.75;10.23;;;;;;;;;;4821291;29;20057;-85
2021/12/29 04:24:58;;;;;;;19.17;8.88;;;;;;;;;;4822670;29;20409;-86
2021/12/29 04:27:26;;;;;;;13.38;6.90;;;;;;;;;;4807520;29;20103;-86
2021/12/29 04:29:53;;;;;;;35.28;11.20;;;;;;;;;;4807245;29;20640;-86
2021/12/29 04:32:20;;;;;;;11.80;6.47;;;;;;;;;;4823432;29;20050;-86
2021/12/29 04:34:48;;;;;;;9.38;5.68;;;;;;;;;;4822446;29;20039;-86
2021/12/29 04:37:15;;;;;;;18.08;7.95;;;;;;;;;;4821343;29;20042;-85
2021/12/29 04:39:42;;;;;;;16.83;7.95;;;;;;;;;;4823265;29;20053;-85
2021/12/29 04:42:10;;;;;;;21.95;10.98;;;;;;;;;;4823021;29;20134;-87
2021/12/29 04:44:37;;;;;;;17.20;8.95;;;;;;;;;;4822045;29;20565;-86
2021/12/29 04:47:07;;;;;;;41.05;12.02;;;;;;;;;;4822878;29;20099;-85
2021/12/29 04:49:40;;;;;;;24.25;9.90;;;;;;;;;;4821474;29;20047;-85
2021/12/29 04:52:11;;;;;;;23.80;9.55;;;;;;;;;;4817929;29;20046;-86
2021/12/29 04:54:38;;;;;;;23.77;8.35;;;;;;;;;;4823271;29;20047;-86
2021/12/29 04:57:07;;;;;;;53.42;12.43;;;;;;;;;;4821789;29;20126;-85
2021/12/29 04:59:34;;;;;;;32.22;11.38;;;;;;;;;;4806602;29;20453;-86
2021/12/29 05:02:02;;;;;;;44.40;12.43;;;;;;;;;;4821467;29;20051;-86
2021/12/29 05:04:32;;;;;;;20.70;9.48;;;;;;;;;;4820140;29;20038;-86
2021/12/29 05:09:47;;;;;;;28.42;10.45;;;;;;;;;;4830856;29;20286;-86
2021/12/29 05:12:14;;;;;;;25.38;9.93;;;;;;;;;;4828105;29;20042;-86
2021/12/29 05:14:41;;;;;;;31.08;11.20;;;;;;;;;;4822772;29;20062;-86
2021/12/29 05:17:09;;;;;;;13.88;6.88;;;;;;;;;;4829321;29;20420;-85
2021/12/29 05:19:36;;;;;;;24.98;9.13;;;;;;;;;;4828303;29;20049;-86
2021/12/29 05:22:03;;;;;;;17.02;7.55;;;;;;;;;;4831844;29;20050;-86
2021/12/29 05:24:31;;;;;;;17.20;6.15;;;;;;;;;;4833365;29;20069;-86
2021/12/29 05:26:58;;;;;;;11.98;4.13;;;;;;;;;;4826194;29;20051;-86
2021/12/29 05:29:26;;;;;;;9.93;1.50;;;;;;;;;;4828029;29;20064;-86
2021/12/29 05:31:53;;;;;;;5.30;1.30;;;;;;;;;;4806370;29;20050;-86
2021/12/29 05:34:20;;;;;;;8.60;1.50;;;;;;;;;;4822468;29;20072;-86
2021/12/29 05:36:48;;;;;;;8.55;1.38;;;;;;;;;;4825712;29;20398;-86
2021/12/29 05:39:15;;;;;;;7.10;1.42;;;;;;;;;;4823662;29;20562;-86
2021/12/29 05:41:43;;;;;;;7.38;1.27;;;;;;;;;;4830595;29;20422;-86
2021/12/29 05:44:11;;;;;;;6.80;1.30;;;;;;;;;;4830307;29;20053;-86
2021/12/29 05:46:38;;;;;;;6.95;1.40;;;;;;;;;;4832090;29;20103;-86
2021/12/29 05:49:06;;;;;;;7.47;1.55;;;;;;;;;;4829730;29;20054;-86
2021/12/29 05:51:33;;;;;;;9.48;1.33;;;;;;;;;;4806104;29;20042;-87
2021/12/29 05:54:00;;;;;;;8.38;1.30;;;;;;;;;;4811670;29;20062;-86
2021/12/29 05:56:27;;;;;;;8.88;1.40;;;;;;;;;;4810210;29;20054;-87
2021/12/29 05:58:59;;;;;;;7.95;1.45;;;;;;;;;;4821655;29;20069;-87
2021/12/29 06:01:28;;;;;;;9.35;1.48;;;;;;;;;;4820299;29;20051;-87
2021/12/29 06:03:56;;;;;;;7.25;1.23;;;;;;;;;;4826841;29;20470;-86
2021/12/29 06:06:23;;;;;;;6.60;1.40;;;;;;;;;;4828545;29;20044;-87
2021/12/29 06:08:50;;;;;;;7.03;1.33;;;;;;;;;;4805497;29;20050;-88
2021/12/29 06:11:18;;;;;;;9.05;1.30;;;;;;;;;;4813838;29;20053;-88
2021/12/29 06:13:45;;;;;;;8.88;1.42;;;;;;;;;;4828543;29;20049;-88
2021/12/29 06:16:13;;;;;;;2.45;0.80;;;;;;;;;;4828776;29;20046;-88
2021/12/29 06:18:40;;;;;;;8.48;1.33;;;;;;;;;;4826682;29;20038;-89
2021/12/29 06:21:07;;;;;;;1.60;0.73;;;;;;;;;;4811744;29;20060;-89
2021/12/29 06:23:35;;;;;;;8.50;1.50;;;;;;;;;;4824686;29;20494;-88
2021/12/29 06:26:02;;;;;;;6.00;1.08;;;;;;;;;;4819618;29;20050;-89
2021/12/29 06:28:29;;;;;;;5.63;1.30;;;;;;;;;;4818192;29;20509;-88
2021/12/29 06:30:57;;;;;;;5.78;1.30;;;;;;;;;;4825519;29;20058;-90
2021/12/29 06:33:25;;;;;;;4.22;1.42;;;;;;;;;;4809210;29;20049;-89
2021/12/29 06:35:52;;;;;;;5.97;1.30;;;;;;;;;;4820359;29;20060;-88
2021/12/29 06:38:21;;;;;;;5.10;1.02;;;;;;;;;;4806562;29;20128;-88
2021/12/29 06:40:49;;;;;;;4.57;1.60;;;;;;;;;;4795931;29;20034;-88
2021/12/29 06:43:16;;;;;;;7.15;1.17;;;;;;;;;;4811184;29;20065;-88
2021/12/29 06:45:44;;;;;;;9.63;1.45;;;;;;;;;;4827471;29;20619;-89
2021/12/29 06:48:11;;;;;;;7.78;1.10;;;;;;;;;;4827233;29;20057;-87
2021/12/29 06:50:39;;;;;;;7.13;1.35;;;;;;;;;;4826713;29;20050;-87
2021/12/29 06:53:06;;;;;;;7.63;1.20;;;;;;;;;;4825140;29;20050;-88
2021/12/29 06:55:33;;;;;;;3.72;0.80;;;;;;;;;;4837151;29;20054;-87
2021/12/29 06:58:01;;;;;;;2.75;0.70;;;;;;;;;;4810633;29;20061;-86
2021/12/29 07:00:28;;;;;;;2.63;1.08;;;;;;;;;;4810100;29;20493;-87
2021/12/29 07:02:57;;;;;;;3.95;1.02;;;;;;;;;;4822845;29;20447;-87
2021/12/29 07:05:25;;;;;;;3.58;0.88;;;;;;;;;;4825037;29;20042;-86
2021/12/29 07:07:54;;;;;;;5.85;1.20;;;;;;;;;;4827771;29;20164;-87
2021/12/29 07:10:22;;;;;;;6.20;1.10;;;;;;;;;;4823929;29;20129;-87
2021/12/29 07:12:49;;;;;;;4.32;0.98;;;;;;;;;;4827842;29;20050;-87
2021/12/29 07:15:17;;;;;;;10.18;1.38;;;;;;;;;;4825331;29;20542;-87
2021/12/29 07:17:44;;;;;;;6.15;1.40;;;;;;;;;;4831468;29;20046;-87
2021/12/29 07:20:11;;;;;;;4.72;1.05;;;;;;;;;;4810876;29;20564;-87
2021/12/29 07:22:39;;;;;;;3.25;1.20;;;;;;;;;;4827161;29;20047;-87
2021/12/29 07:25:06;;;;;;;7.38;1.55;;;;;;;;;;4826369;29;20473;-87
2021/12/29 07:27:34;;;;;;;4.90;0.77;;;;;;;;;;4814661;29;20038;-88
2021/12/29 07:30:01;;;;;;;2.28;0.93;;;;;;;;;;4823837;29;20049;-87
2021/12/29 07:32:28;;;;;;;3.45;1.10;;;;;;;;;;4810955;29;20056;-86
2021/12/29 07:34:56;;;;;;;2.20;0.90;;;;;;;;;;4805560;29;20061;-87
2021/12/29 07:37:23;;;;;;;5.60;1.23;;;;;;;;;;4804654;29;20555;-87
2021/12/29 07:39:50;;;;;;;4.10;1.20;;;;;;;;;;4822103;29;20052;-87
2021/12/29 07:42:19;;;;;;;4.25;1.30;;;;;;;;;;4827596;29;20046;-87
2021/12/29 07:44:51;;;;;;;5.32;1.23;;;;;;;;;;4825779;29;20038;-87
2021/12/29 07:47:18;;;;;;;4.78;1.17;;;;;;;;;;4825397;29;20107;-87
2021/12/29 07:49:46;;;;;;;3.15;1.20;;;;;;;;;;4825374;29;20042;-87
2021/12/29 07:52:13;;;;;;;2.67;1.17;;;;;;;;;;4832390;29;20050;-86
2021/12/29 07:54:40;;;;;;;3.45;1.15;;;;;;;;;;4811579;29;20291;-87
2021/12/29 07:57:08;;;;;;;3.72;0.90;;;;;;;;;;4819618;29;20217;-88
2021/12/29 07:59:35;;;;;;;2.72;1.05;;;;;;;;;;4835199;29;20041;-88
2021/12/29 08:02:03;;;;;;;1.65;1.10;;;;;;;;;;4831578;29;20050;-88
2021/12/29 08:04:30;;;;;;;2.83;1.10;;;;;;;;;;4837618;29;20041;-88
2021/12/29 08:06:58;;;;;;;5.85;1.60;;;;;;;;;;4831429;29;20477;-87
2021/12/29 08:09:27;;;;;;;5.50;1.20;;;;;;;;;;4830750;29;20047;-87
2021/12/29 08:11:54;;;;;;;5.00;0.98;;;;;;;;;;4806925;29;20051;-87
2021/12/29 08:14:24;;;;;;;1.88;0.90;;;;;;;;;;4827243;29;20064;-86
2021/12/29 08:16:51;;;;;;;7.30;1.70;;;;;;;;;;4830080;29;20140;-88
2021/12/29 08:19:21;;;;;;;6.93;1.40;;;;;;;;;;4823221;29;20054;-88
2021/12/29 08:21:50;;;;;;;4.55;1.45;;;;;;;;;;4824098;29;20038;-88
2021/12/29 08:24:19;;;;;;;4.93;1.27;;;;;;;;;;4814305;29;20080;-88
2021/12/29 08:26:47;;;;;;;3.53;1.17;;;;;;;;;;4815139;29;20052;-88
2021/12/29 08:29:14;;;;;;;3.53;1.05;;;;;;;;;;4817925;29;20054;-87
2021/12/29 08:31:41;;;;;;;3.95;1.20;;;;;;;;;;4823355;29;20045;-88
2021/12/29 08:34:09;;;;;;;2.25;0.80;;;;;;;;;;4834270;29;20050;-89
2021/12/29 08:36:36;;;;;;;3.67;1.42;;;;;;;;;;4833230;29;20054;-88
2021/12/29 08:39:04;;;;;;;2.55;1.30;;;;;;;;;;4840146;29;20531;-87
2021/12/29 08:41:32;;;;;;;2.55;1.05;;;;;;;;;;4836260;29;20046;-87
2021/12/29 08:43:59;;;;;;;4.47;1.23;;;;;;;;;;4832746;29;20125;-87
2021/12/29 08:46:30;;;;;;;8.48;1.58;;;;;;;;;;4833092;29;20160;-88
2021/12/29 08:48:58;;;;;;;7.75;1.90;;;;;;;;;;4820960;29;20054;-88
2021/12/29 08:51:28;;;;;;;3.60;1.30;;;;;;;;;;4832739;29;20461;-87
2021/12/29 08:53:57;;;;;;;3.15;1.10;;;;;;;;;;4832659;29;20050;-88
2021/12/29 08:56:25;;;;;;;4.82;1.20;;;;;;;;;;4832545;29;20065;-87
2021/12/29 08:58:53;;;;;;;6.78;1.50;;;;;;;;;;4833091;29;20356;-88
2021/12/29 09:01:22;;;;;;;1.70;1.00;;;;;;;;;;4838352;29;20046;-88
2021/12/29 09:03:50;;;;;;;4.03;1.48;;;;;;;;;;4800079;29;20050;-87
2021/12/29 09:06:20;;;;;;;3.33;1.75;;;;;;;;;;4829866;29;20046;-87
2021/12/29 09:08:47;;;;;;;2.15;1.00;;;;;;;;;;4832658;29;20117;-88
2021/12/29 09:11:16;;;;;;;1.73;1.10;;;;;;;;;;4833162;29;20038;-87
2021/12/29 09:13:46;;;;;;;4.72;1.77;;;;;;;;;;4835397;29;20090;-87
2021/12/29 09:16:14;;;;;;;2.47;1.40;;;;;;;;;;4804803;29;20050;-87
2021/12/29 09:18:41;;;;;;;10.57;2.30;;;;;;;;;;4835449;29;20047;-87
2021/12/29 09:21:14;;;;;;;4.78;1.83;;;;;;;;;;4836889;29;20045;-87
2021/12/29 09:23:41;;;;;;;1.98;1.25;;;;;;;;;;4813150;29;20060;-87
2021/12/29 09:26:10;;;;;;;3.30;1.70;;;;;;;;;;4827685;29;20045;-87
2021/12/29 09:28:39;;;;;;;4.30;1.60;;;;;;;;;;4829673;29;20060;-88
2021/12/29 09:31:09;;;;;;;2.35;1.20;;;;;;;;;;4829735;29;20053;-87
2021/12/29 09:33:36;;;;;;;1.38;1.13;;;;;;;;;;4841010;29;20053;-88
2021/12/29 09:36:04;;;;;;;3.47;1.40;;;;;;;;;;4821122;29;20053;-87
2021/12/29 09:38:35;;;;;;;4.88;1.77;;;;;;;;;;4837415;29;20153;-88
2021/12/29 09:41:06;;;;;;;2.42;1.13;;;;;;;;;;4815953;29;20053;-87
2021/12/29 09:43:33;;;;;;;2.10;1.23;;;;;;;;;;4828673;29;20056;-87
2021/12/29 09:46:01;;;;;;;2.65;1.10;;;;;;;;;;4832362;29;20720;-87
2021/12/29 09:48:28;;;;;;;4.22;1.50;;;;;;;;;;4818007;29;20038;-87
2021/12/29 09:50:56;;;;;;;3.85;1.10;;;;;;;;;;4826422;29;20057;-87
2021/12/29 09:53:23;;;;;;;2.50;1.10;;;;;;;;;;4829925;29;20057;-87
2021/12/29 09:55:54;;;;;;;9.65;2.05;;;;;;;;;;4821472;29;20141;-87
2021/12/29 09:58:21;;;;;;;6.88;1.70;;;;;;;;;;4829584;29;20058;-86
2021/12/29 10:00:54;;;;;;;6.15;1.90;;;;;;;;;;4829464;29;20042;-86
2021/12/29 10:03:23;;;;;;;3.70;1.70;;;;;;;;;;4832781;29;20111;-86
2021/12/29 10:05:52;;;;;;;2.08;1.58;;;;;;;;;;4824463;29;20118;-86
2021/12/29 10:08:27;;;;;;;4.28;1.80;;;;;;;;;;4830224;29;20042;-85
2021/12/29 10:10:56;;;;;;;3.70;2.00;;;;;;;;;;4817814;29;20401;-88
2021/12/29 10:13:27;;;;;;;7.25;2.42;;;;;;;;;;4829068;29;20094;-87
2021/12/29 10:16:02;;;;;;;6.50;1.90;;;;;;;;;;4826490;29;20056;-86
2021/12/29 10:18:31;;;;;;;4.20;1.33;;;;;;;;;;4834763;29;20287;-86
2021/12/29 10:21:04;;;;;;;3.50;1.83;;;;;;;;;;4830613;29;20042;-86
2021/12/29 10:23:32;;;;;;;4.10;1.35;;;;;;;;;;4846013;29;20804;-86
2021/12/29 10:26:06;;;;;;;8.18;1.80;;;;;;;;;;4823984;29;20064;-86
2021/12/29 10:28:33;;;;;;;5.97;1.80;;;;;;;;;;4830887;29;20366;-87
2021/12/29 10:31:00;;;;;;;5.68;1.70;;;;;;;;;;4827558;29;20210;-86
2021/12/29 10:33:36;;;;;;;1.60;0.98;;;;;;;;;;4821014;29;20038;-87
2021/12/29 10:36:24;;;;;;;3.28;1.52;;;;;;;;;;4816528;29;20054;-85
2021/12/29 10:39:03;;;;;;;4.65;1.40;;;;;;;;;;4828540;29;20038;-86
2021/12/29 10:41:31;;;;;;;2.88;1.30;;;;;;;;;;4831881;29;20042;-88
2021/12/29 10:44:01;;;;;;;4.43;1.35;;;;;;;;;;4820898;29;20191;-87
2021/12/29 10:46:31;;;;;;;3.42;1.33;;;;;;;;;;4831959;29;20056;-87
2021/12/29 10:49:00;;;;;;;1.85;1.35;;;;;;;;;;4839299;29;20511;-86
2021/12/29 10:51:31;;;;;;;6.80;2.83;;;;;;;;;;4845244;29;20098;-86
2021/12/29 10:54:09;;;;;;;5.18;2.30;;;;;;;;;;4826177;29;20050;-87
2021/12/29 10:56:37;;;;;;;4.55;2.28;;;;;;;;;;4829510;29;20042;-87
2021/12/29 10:59:28;;;;;;;4.85;2.35;;;;;;;;;;4807694;29;20058;-86
2021/12/29 11:01:56;;;;;;;2.03;1.63;;;;;;;;;;4830950;29;20145;-87
2021/12/29 11:04:24;;;;;;;4.95;1.98;;;;;;;;;;4821153;29;20055;-88
2021/12/29 11:06:55;;;;;;;2.47;1.58;;;;;;;;;;4824330;29;20042;-88
2021/12/29 11:09:24;;;;;;;2.75;1.77;;;;;;;;;;4817277;29;20046;-88
2021/12/29 11:11:52;;;;;;;3.92;1.42;;;;;;;;;;4834536;29;20041;-87
2021/12/29 11:14:31;;;;;;;1.52;1.38;;;;;;;;;;4824711;29;20050;-88
2021/12/29 11:17:10;;;;;;;2.05;1.33;;;;;;;;;;4833962;29;20057;-87
2021/12/29 11:19:38;;;;;;;1.58;1.20;;;;;;;;;;4828026;29;20047;-88
2021/12/29 11:22:08;;;;;;;4.20;1.30;;;;;;;;;;4833819;29;20126;-88
2021/12/29 11:24:36;;;;;;;5.20;1.40;;;;;;;;;;4834386;29;20038;-86
2021/12/29 11:27:15;;;;;;;3.80;1.70;;;;;;;;;;4832867;29;20042;-87
2021/12/29 11:29:51;;;;;;;3.72;1.60;;;;;;;;;;4833250;29;20058;-87
2021/12/29 11:32:34;;;;;;;4.50;1.60;;;;;;;;;;4832972;29;20058;-87
2021/12/29 11:35:09;;;;;;;;;;;;;;;;;;4848791;29;20119;-91
2021/12/29 11:38:01;;;;;;;3.28;1.30;;;;;;;;;;4806017;29;19913;-88
2021/12/29 11:41:05;;;;;;;1.63;1.50;;;;;;;;;;4838242;29;20067;-88
2021/12/29 11:43:52;;;;;;;4.22;1.48;;;;;;;;;;4841443;29;20038;-90
2021/12/29 11:46:39;;;;;;;2.83;1.20;;;;;;;;;;4854729;29;20033;-88
2021/12/29 11:49:41;;;;;;;1.55;1.23;;;;;;;;;;4854792;29;20049;-92
2021/12/29 11:52:35;;;;;;;2.83;1.60;;;;;;;;;;4833347;29;20034;-88
2021/12/29 11:55:15;;;;;;;2.30;1.35;;;;;;;;;;4812963;29;20063;-88
2021/12/29 11:57:45;;;;;;;4.93;1.48;;;;;;;;;;4854418;29;20804;-88
2021/12/29 12:00:21;;;;;;;1.20;1.20;;;;;;;;;;4834078;29;20066;-88
2021/12/29 12:02:50;;;;;;;2.70;1.40;;;;;;;;;;4836749;29;20061;-88
2021/12/29 12:05:29;;;;;;;3.58;1.40;;;;;;;;;;4809784;29;20174;-88
2021/12/29 12:08:29;;;;;;;6.10;1.48;;;;;;;;;;4824194;29;20042;-88
2021/12/29 12:11:00;;;;;;;3.38;1.70;;;;;;;;;;4789157;29;20058;-88
2021/12/29 12:13:31;;;;;;;3.65;1.50;;;;;;;;;;4804835;29;20093;-88
2021/12/29 12:16:16;;;;;;;3.30;1.75;;;;;;;;;;4789478;29;20072;-88
2021/12/29 12:18:50;;;;;;;2.50;2.03;;;;;;;;;;4789641;29;20054;-88
2021/12/29 12:21:31;;;;;;;3.38;2.15;;;;;;;;;;4785350;29;20093;-88
2021/12/29 12:24:11;;;;;;;3.90;2.00;;;;;;;;;;4786094;29;20093;-89
2021/12/29 12:26:54;;;;;;;3.35;1.80;;;;;;;;;;4797728;29;20541;-88
2021/12/29 12:29:26;;;;;;;3.28;1.70;;;;;;;;;;4789246;29;20841;-87
2021/12/29 12:32:00;;;;;;;4.40;1.83;;;;;;;;;;4803771;29;20047;-88
2021/12/29 12:34:30;;;;;;;2.15;1.33;;;;;;;;;;4803511;29;20057;-88
2021/12/29 12:37:12;;;;;;;5.78;1.65;;;;;;;;;;4773946;29;20050;-88
2021/12/29 12:39:58;;;;;;;3.67;1.42;;;;;;;;;;4800108;29;20042;-88
2021/12/29 12:42:30;;;;;;;1.50;1.33;;;;;;;;;;4802020;29;20054;-89
2021/12/29 12:45:00;;;;;;;2.05;1.27;;;;;;;;;;4787486;29;20066;-88
2021/12/29 12:47:38;;;;;;;5.28;1.90;;;;;;;;;;4801756;29;20126;-88
2021/12/29 12:50:10;;;;;;;3.47;2.33;;;;;;;;;;4832397;29;20058;-88
2021/12/29 12:52:46;;;;;;;3.30;2.47;;;;;;;;;;4834160;29;20046;-88
2021/12/29 12:55:14;;;;;;;3.85;1.90;;;;;;;;;;4834614;29;20564;-88
2021/12/29 12:57:53;;;;;;;3.45;2.40;;;;;;;;;;4798874;29;20066;-88
2021/12/29 13:00:54;;;;;;;6.15;2.40;;;;;;;;;;4811669;29;20050;-88
2021/12/29 13:03:52;;;;;;;3.60;2.30;;;;;;;;;;4829295;29;20053;-89
2021/12/29 13:07:13;;;;;;;2.42;2.08;;;;;;;;;;4814575;29;20183;-89
2021/12/29 13:14:17;;;;;;;2.20;1.73;;;;;;;;;;4801781;29;20123;-89
2021/12/29 13:21:25;;;;;;;5.20;2.05;;;;;;;;;;4682025;30;20080;-88
2021/12/29 13:29:08;;;;;;;;;;;;;;;;;;4635299;24;20575;-68
2021/12/29 13:31:35;;;;;;;5.03;2.90;;;;;;;;;;4797989;29;19931;-69
2021/12/29 13:34:02;;;;;;;6.20;3.80;;;;;;;;;;4797636;29;20133;-67
2021/12/29 13:36:30;;;;;;;4.45;2.70;;;;;;;;;;4798416;29;20127;-67
2021/12/29 13:38:58;;;;;;;4.28;3.00;;;;;;;;;;4798076;29;20057;-66
2021/12/29 13:41:25;;;;;;;4.38;2.80;;;;;;;;;;4797199;29;20043;-67
2021/12/29 13:43:54;;;;;;;5.65;2.08;;;;;;;;;;4809566;29;20053;-67
2021/12/29 13:46:23;;;;;;;2.78;1.98;;;;;;;;;;4807806;29;20133;-66
2021/12/29 13:48:52;;;;;;;6.43;2.10;;;;;;;;;;4810480;29;20054;-67
2021/12/29 13:51:21;;;;;;;3.63;1.60;;;;;;;;;;4808463;29;20072;-67
2021/12/29 13:53:49;;;;;;;4.47;2.88;;;;;;;;;;4808430;29;20226;-66
2021/12/29 13:56:22;;;;;;;3.97;3.58;;;;;;;;;;4807668;29;20125;-67
2021/12/29 13:59:00;;;;;;;4.93;3.28;;;;;;;;;;4815057;29;20050;-67
2021/12/29 14:01:28;;;;;;;4.45;2.85;;;;;;;;;;4808629;29;20072;-66
2021/12/29 14:03:56;;;;;;;5.65;2.33;;;;;;;;;;4801216;29;20131;-67
2021/12/29 14:06:25;;;;;;;5.07;2.30;;;;;;;;;;4801257;29;20047;-67
2021/12/29 14:08:52;;;;;;;4.60;3.17;;;;;;;;;;4801505;29;20048;-67
2021/12/29 14:11:20;;;;;;;4.50;2.53;;;;;;;;;;4798902;29;21062;-67
2021/12/29 14:13:58;;;;;;;7.68;2.83;;;;;;;;;;4801784;29;20043;-67
2021/12/29 14:16:27;;;;;;;4.50;2.60;;;;;;;;;;4802127;29;20107;-67
2021/12/29 14:18:56;;;;;;;5.28;2.53;;;;;;;;;;4818963;29;20089;-66
2021/12/29 14:21:30;;;;;;;5.03;2.42;;;;;;;;;;4815822;29;20353;-67
2021/12/29 14:24:01;;;;;;;4.93;3.03;;;;;;;;;;4817868;29;20060;-67
2021/12/29 14:26:33;;;;;;;5.90;2.75;;;;;;;;;;4807932;29;20053;-67
2021/12/29 14:29:01;;;;;;;8.82;3.00;;;;;;;;;;4799055;29;20189;-67
2021/12/29 14:31:39;;;;;;;7.93;3.10;;;;;;;;;;4798429;29;20456;-67
2021/12/29 14:34:07;;;;;;;5.45;4.10;;;;;;;;;;4800379;29;20112;-67
2021/12/29 14:36:44;;;;;;;10.65;5.95;;;;;;;;;;4814771;29;20502;-67
2021/12/29 14:39:21;;;;;;;7.78;5.63;;;;;;;;;;4818342;29;20142;-67
2021/12/29 14:42:08;;;;;;;8.88;5.70;;;;;;;;;;4806085;29;20507;-67
2021/12/29 14:44:39;;;;;;;7.22;3.70;;;;;;;;;;4801273;29;20134;-67
2021/12/29 14:47:09;;;;;;;6.95;3.83;;;;;;;;;;4799008;29;20042;-67
2021/12/29 14:49:39;;;;;;;7.07;4.68;;;;;;;;;;4799906;29;20049;-67
2021/12/29 14:52:07;;;;;;;12.38;6.57;;;;;;;;;;4813608;29;20046;-67
2021/12/29 14:54:37;;;;;;;10.48;6.30;;;;;;;;;;4818454;29;20503;-67
2021/12/29 14:57:09;;;;;;;11.38;7.03;;;;;;;;;;4819093;29;20076;-67
2021/12/29 14:59:36;;;;;;;14.07;8.90;;;;;;;;;;4820901;29;20060;-67
2021/12/29 15:02:11;;;;;;;18.48;10.05;;;;;;;;;;4807605;29;20058;-66
2021/12/29 15:04:39;;;;;;;13.48;8.52;;;;;;;;;;4804962;29;20039;-67
2021/12/29 15:07:21;;;;;;;15.25;9.68;;;;;;;;;;4804620;29;20530;-67
2021/12/29 15:10:09;;;;;;;11.45;8.68;;;;;;;;;;4803673;29;20047;-67
2021/12/29 15:12:38;;;;;;;10.30;6.88;;;;;;;;;;4786556;29;20139;-67
2021/12/29 15:15:17;;;;;;;10.25;7.70;;;;;;;;;;4786653;29;20055;-66
2021/12/29 15:18:12;;;;;;;11.68;6.90;;;;;;;;;;4785941;29;20208;-67
2021/12/29 15:20:42;;;;;;;7.63;5.60;;;;;;;;;;4788387;29;20049;-66
2021/12/29 15:23:14;;;;;;;7.30;4.63;;;;;;;;;;4803432;29;20124;-66